Detalii statie CORIPLANT MIHALT [0000197B]

Toti senzorii

Date Temperatura solului [C]Precipitatii [mm]Voltaj baterie [mV]Leaf Wetness [Min]HC Air temperature [C]HC Relative humidity [%]Punctul de roua [C]
medieminmaxsumaultimatimpmedieminmaxmediemediemin
2018-12-09 16:00:00 0 7050 7.37 5.08 8.78 84.4 4.7 4.2
2018-12-09 17:00:00 0 6942 4.14 3.52 4.72 99.7 4 3.5
2018-12-09 18:00:00 0 6942 3.02 2.29 3.52 100 2.9 2.2
2018-12-09 19:00:00 0 6922 2.25 1.9 2.63 100 2.2 1.9
2018-12-09 20:00:00 0 6904 1.61 1.18 1.9 100 1.5 1.1
2018-12-09 21:00:00 0 6894 0.76 0.48 1.4 100 0.7 0.4
2018-12-09 22:00:00 0 6894 0.72 0.56 0.92 100 0.6 0.5
2018-12-09 23:00:00 0 6884 0.64 0.28 1.01 100 0.6 0.2
2018-12-10 00:00:00 0 6884 0.35 0.18 0.66 100 0.3 0.1
2018-12-10 01:00:00 0 6884 0.63 0.29 0.85 100 0.5 0.2
2018-12-10 02:00:00 0 6874 0.68 0.31 0.93 100 0.6 0.3
2018-12-10 03:00:00 0 6864 0.34 0.15 0.58 100 0.2 0.1
2018-12-10 04:00:00 0 6864 0.16 -0.04 0.36 100 0.1 0
2018-12-10 05:00:00 0 6864 0.73 0.48 0.89 100 0.6 0.4
2018-12-10 06:00:00 0 6864 0.65 0.54 0.76 100 0.6 0.5
2018-12-10 07:00:00 0 6854 0.71 0.52 0.98 100 0.6 0.5
2018-12-10 08:00:00 0 6844 1.11 0.88 1.27 100 1 0.8
2018-12-10 09:00:00 0 6874 1.04 0.46 1.89 100 1 0.4
2018-12-10 10:00:00 0 6962 2.23 1.91 2.61 100 2.1 1.9
2018-12-10 11:00:00 0 7060 2.92 2.26 3.84 100 2.8 2.2
2018-12-10 12:00:00 0 7088 4.05 3.75 4.63 100 4 3.7
2018-12-10 13:00:00 0 7148 5.61 4.73 6.14 100 5.5 4.7
2018-12-10 14:00:00 0 7206 5.93 5.83 6.05 100 5.8 5.8